sensor_id;sensor_type;location;lat;lon;timestamp;P1;durP1;ratioP1;P2;durP2;ratioP2
70148;SDS011;57514;52.164;5.282;2023-08-12T00:01:11;9.10;;;3.83;;
70148;SDS011;57514;52.164;5.282;2023-08-12T00:03:38;9.30;;;4.15;;
70148;SDS011;57514;52.164;5.282;2023-08-12T00:06:05;11.88;;;4.10;;
70148;SDS011;57514;52.164;5.282;2023-08-12T00:08:33;13.02;;;4.32;;
70148;SDS011;57514;52.164;5.282;2023-08-12T00:11:00;11.27;;;3.83;;
70148;SDS011;57514;52.164;5.282;2023-08-12T00:13:28;10.85;;;4.82;;
70148;SDS011;57514;52.164;5.282;2023-08-12T00:15:55;15.38;;;5.65;;
70148;SDS011;57514;52.164;5.282;2023-08-12T00:18:22;15.70;;;4.95;;
70148;SDS011;57514;52.164;5.282;2023-08-12T00:20:50;11.00;;;4.80;;
70148;SDS011;57514;52.164;5.282;2023-08-12T00:23:17;11.85;;;4.30;;
70148;SDS011;57514;52.164;5.282;2023-08-12T00:25:45;14.13;;;4.97;;
70148;SDS011;57514;52.164;5.282;2023-08-12T00:28:12;14.40;;;5.65;;
70148;SDS011;57514;52.164;5.282;2023-08-12T00:30:39;13.05;;;4.75;;
70148;SDS011;57514;52.164;5.282;2023-08-12T00:33:07;13.18;;;5.10;;
70148;SDS011;57514;52.164;5.282;2023-08-12T00:35:35;14.20;;;5.05;;
70148;SDS011;57514;52.164;5.282;2023-08-12T00:38:02;15.05;;;5.45;;
70148;SDS011;57514;52.164;5.282;2023-08-12T00:40:29;13.18;;;5.32;;
70148;SDS011;57514;52.164;5.282;2023-08-12T00:42:57;12.82;;;4.88;;
70148;SDS011;57514;52.164;5.282;2023-08-12T00:45:24;14.43;;;5.85;;
70148;SDS011;57514;52.164;5.282;2023-08-12T00:47:51;13.07;;;5.07;;
70148;SDS011;57514;52.164;5.282;2023-08-12T00:50:19;17.40;;;6.05;;
70148;SDS011;57514;52.164;5.282;2023-08-12T00:52:46;17.85;;;6.78;;
70148;SDS011;57514;52.164;5.282;2023-08-12T00:55:14;14.85;;;5.60;;
70148;SDS011;57514;52.164;5.282;2023-08-12T00:57:41;16.30;;;6.00;;
70148;SDS011;57514;52.164;5.282;2023-08-12T01:00:09;14.75;;;6.22;;
70148;SDS011;57514;52.164;5.282;2023-08-12T01:02:36;13.88;;;5.68;;
70148;SDS011;57514;52.164;5.282;2023-08-12T01:05:04;12.93;;;5.65;;
70148;SDS011;57514;52.164;5.282;2023-08-12T01:07:33;16.90;;;5.05;;
70148;SDS011;57514;52.164;5.282;2023-08-12T01:10:01;12.10;;;5.30;;
70148;SDS011;57514;52.164;5.282;2023-08-12T01:12:29;15.55;;;5.35;;
70148;SDS011;57514;52.164;5.282;2023-08-12T01:15:07;17.02;;;5.75;;
70148;SDS011;57514;52.164;5.282;2023-08-12T01:17:37;13.57;;;5.85;;
70148;SDS011;57514;52.164;5.282;2023-08-12T01:20:07;17.58;;;5.15;;
70148;SDS011;57514;52.164;5.282;2023-08-12T01:22:38;16.63;;;6.68;;
70148;SDS011;57514;52.164;5.282;2023-08-12T01:25:07;17.10;;;4.95;;
70148;SDS011;57514;52.164;5.282;2023-08-12T01:27:37;14.60;;;5.18;;
70148;SDS011;57514;52.164;5.282;2023-08-12T01:35:08;12.48;;;4.90;;
70148;SDS011;57514;52.164;5.282;2023-08-12T01:37:54;12.43;;;5.20;;
70148;SDS011;57514;52.164;5.282;2023-08-12T01:40:24;14.88;;;5.80;;
70148;SDS011;57514;52.164;5.282;2023-08-12T01:42:52;13.23;;;5.57;;
70148;SDS011;57514;52.164;5.282;2023-08-12T01:45:19;13.23;;;5.22;;
70148;SDS011;57514;52.164;5.282;2023-08-12T01:47:46;14.88;;;5.28;;
70148;SDS011;57514;52.164;5.282;2023-08-12T01:52:43;15.02;;;5.35;;
70148;SDS011;57514;52.164;5.282;2023-08-12T01:55:11;15.30;;;6.22;;
70148;SDS011;57514;52.164;5.282;2023-08-12T01:57:38;14.98;;;5.72;;
70148;SDS011;57514;52.164;5.282;2023-08-12T02:00:05;18.45;;;6.13;;
70148;SDS011;57514;52.164;5.282;2023-08-12T02:05:09;15.63;;;6.18;;
70148;SDS011;57514;52.164;5.282;2023-08-12T02:07:36;13.75;;;5.88;;
70148;SDS011;57514;52.164;5.282;2023-08-12T02:10:03;13.10;;;5.50;;
70148;SDS011;57514;52.164;5.282;2023-08-12T02:12:31;14.73;;;5.47;;
70148;SDS011;57514;52.164;5.282;2023-08-12T02:14:57;15.70;;;6.25;;
70148;SDS011;57514;52.164;5.282;2023-08-12T02:17:25;15.15;;;5.68;;
70148;SDS011;57514;52.164;5.282;2023-08-12T02:19:52;14.20;;;5.78;;
70148;SDS011;57514;52.164;5.282;2023-08-12T02:22:19;15.82;;;5.50;;
70148;SDS011;57514;52.164;5.282;2023-08-12T02:24:46;13.63;;;5.25;;
70148;SDS011;57514;52.164;5.282;2023-08-12T02:27:14;17.45;;;6.55;;
70148;SDS011;57514;52.164;5.282;2023-08-12T02:29:41;17.23;;;6.35;;
70148;SDS011;57514;52.164;5.282;2023-08-12T02:32:08;22.00;;;8.35;;
70148;SDS011;57514;52.164;5.282;2023-08-12T02:34:35;18.48;;;8.02;;
70148;SDS011;57514;52.164;5.282;2023-08-12T02:37:03;20.25;;;7.90;;
70148;SDS011;57514;52.164;5.282;2023-08-12T02:39:30;18.13;;;9.02;;
70148;SDS011;57514;52.164;5.282;2023-08-12T02:41:57;22.60;;;10.45;;
70148;SDS011;57514;52.164;5.282;2023-08-12T02:44:26;24.85;;;11.45;;
70148;SDS011;57514;52.164;5.282;2023-08-12T02:46:53;23.58;;;11.52;;
70148;SDS011;57514;52.164;5.282;2023-08-12T02:49:20;22.40;;;10.55;;
70148;SDS011;57514;52.164;5.282;2023-08-12T02:51:47;24.25;;;10.95;;
70148;SDS011;57514;52.164;5.282;2023-08-12T02:54:14;22.50;;;11.02;;
70148;SDS011;57514;52.164;5.282;2023-08-12T02:56:41;23.58;;;11.15;;
70148;SDS011;57514;52.164;5.282;2023-08-12T02:59:09;20.92;;;10.55;;
70148;SDS011;57514;52.164;5.282;2023-08-12T03:01:36;18.92;;;10.07;;
70148;SDS011;57514;52.164;5.282;2023-08-12T03:04:04;28.60;;;10.95;;
70148;SDS011;57514;52.164;5.282;2023-08-12T03:06:31;21.48;;;11.05;;
70148;SDS011;57514;52.164;5.282;2023-08-12T03:08:58;20.15;;;11.05;;
70148;SDS011;57514;52.164;5.282;2023-08-12T03:11:26;25.77;;;12.05;;
70148;SDS011;57514;52.164;5.282;2023-08-12T03:13:55;23.58;;;10.30;;
70148;SDS011;57514;52.164;5.282;2023-08-12T03:16:24;21.58;;;10.13;;
70148;SDS011;57514;52.164;5.282;2023-08-12T03:18:52;23.23;;;11.00;;
70148;SDS011;57514;52.164;5.282;2023-08-12T03:21:20;25.20;;;11.35;;
70148;SDS011;57514;52.164;5.282;2023-08-12T03:23:47;23.48;;;10.50;;
70148;SDS011;57514;52.164;5.282;2023-08-12T03:26:14;24.00;;;10.93;;
70148;SDS011;57514;52.164;5.282;2023-08-12T03:28:42;29.63;;;12.85;;
70148;SDS011;57514;52.164;5.282;2023-08-12T03:31:13;25.75;;;12.32;;
70148;SDS011;57514;52.164;5.282;2023-08-12T03:33:40;25.75;;;12.25;;
70148;SDS011;57514;52.164;5.282;2023-08-12T03:36:08;26.30;;;11.68;;
70148;SDS011;57514;52.164;5.282;2023-08-12T03:38:36;25.30;;;12.02;;
70148;SDS011;57514;52.164;5.282;2023-08-12T03:41:04;22.83;;;10.93;;
70148;SDS011;57514;52.164;5.282;2023-08-12T03:43:32;23.88;;;12.13;;
70148;SDS011;57514;52.164;5.282;2023-08-12T03:46:00;22.92;;;11.00;;
70148;SDS011;57514;52.164;5.282;2023-08-12T03:48:27;23.90;;;11.00;;
70148;SDS011;57514;52.164;5.282;2023-08-12T03:50:56;22.67;;;11.48;;
70148;SDS011;57514;52.164;5.282;2023-08-12T03:53:23;24.48;;;11.68;;
70148;SDS011;57514;52.164;5.282;2023-08-12T03:55:52;26.60;;;11.32;;
70148;SDS011;57514;52.164;5.282;2023-08-12T03:58:19;24.77;;;11.00;;
70148;SDS011;57514;52.164;5.282;2023-08-12T04:00:47;23.92;;;11.68;;
70148;SDS011;57514;52.164;5.282;2023-08-12T04:03:15;21.83;;;10.05;;
70148;SDS011;57514;52.164;5.282;2023-08-12T04:05:49;25.73;;;10.68;;
70148;SDS011;57514;52.164;5.282;2023-08-12T04:08:19;24.73;;;11.05;;
70148;SDS011;57514;52.164;5.282;2023-08-12T04:10:47;22.17;;;11.82;;
70148;SDS011;57514;52.164;5.282;2023-08-12T04:13:15;26.35;;;11.60;;
70148;SDS011;57514;52.164;5.282;2023-08-12T04:15:41;26.33;;;11.43;;
70148;SDS011;57514;52.164;5.282;2023-08-12T04:18:09;19.33;;;10.10;;
70148;SDS011;57514;52.164;5.282;2023-08-12T04:20:37;28.48;;;10.93;;
70148;SDS011;57514;52.164;5.282;2023-08-12T04:23:04;25.23;;;10.18;;
70148;SDS011;57514;52.164;5.282;2023-08-12T04:25:32;24.63;;;10.98;;
70148;SDS011;57514;52.164;5.282;2023-08-12T04:27:59;21.08;;;10.63;;
70148;SDS011;57514;52.164;5.282;2023-08-12T04:30:28;23.88;;;10.48;;
70148;SDS011;57514;52.164;5.282;2023-08-12T04:32:56;25.75;;;11.82;;
70148;SDS011;57514;52.164;5.282;2023-08-12T04:35:26;23.08;;;10.40;;
70148;SDS011;57514;52.164;5.282;2023-08-12T04:37:54;21.52;;;10.07;;
70148;SDS011;57514;52.164;5.282;2023-08-12T04:40:20;23.00;;;10.68;;
70148;SDS011;57514;52.164;5.282;2023-08-12T04:42:49;20.90;;;10.70;;
70148;SDS011;57514;52.164;5.282;2023-08-12T04:45:17;29.95;;;11.18;;
70148;SDS011;57514;52.164;5.282;2023-08-12T04:47:45;25.05;;;10.50;;
70148;SDS011;57514;52.164;5.282;2023-08-12T04:50:14;24.77;;;12.18;;
70148;SDS011;57514;52.164;5.282;2023-08-12T04:52:41;22.30;;;10.38;;
70148;SDS011;57514;52.164;5.282;2023-08-12T04:55:09;22.20;;;11.35;;
70148;SDS011;57514;52.164;5.282;2023-08-12T04:57:41;23.33;;;11.98;;
70148;SDS011;57514;52.164;5.282;2023-08-12T05:00:09;26.45;;;10.10;;
70148;SDS011;57514;52.164;5.282;2023-08-12T05:02:37;21.77;;;12.32;;
70148;SDS011;57514;52.164;5.282;2023-08-12T05:05:04;20.00;;;10.73;;
70148;SDS011;57514;52.164;5.282;2023-08-12T05:07:33;21.83;;;10.50;;
70148;SDS011;57514;52.164;5.282;2023-08-12T05:10:02;23.25;;;11.75;;
70148;SDS011;57514;52.164;5.282;2023-08-12T05:12:31;23.45;;;10.82;;
70148;SDS011;57514;52.164;5.282;2023-08-12T05:14:59;23.70;;;10.57;;
70148;SDS011;57514;52.164;5.282;2023-08-12T05:17:27;22.15;;;11.38;;
70148;SDS011;57514;52.164;5.282;2023-08-12T05:19:54;22.63;;;10.65;;
70148;SDS011;57514;52.164;5.282;2023-08-12T05:22:22;21.75;;;11.23;;
70148;SDS011;57514;52.164;5.282;2023-08-12T05:24:49;23.98;;;10.68;;
70148;SDS011;57514;52.164;5.282;2023-08-12T05:27:16;21.45;;;11.20;;
70148;SDS011;57514;52.164;5.282;2023-08-12T05:29:44;20.73;;;10.18;;
70148;SDS011;57514;52.164;5.282;2023-08-12T05:32:10;22.23;;;10.32;;
70148;SDS011;57514;52.164;5.282;2023-08-12T05:34:38;21.58;;;9.65;;
70148;SDS011;57514;52.164;5.282;2023-08-12T05:37:06;21.35;;;9.90;;
70148;SDS011;57514;52.164;5.282;2023-08-12T05:39:33;25.35;;;10.13;;
70148;SDS011;57514;52.164;5.282;2023-08-12T05:42:00;23.60;;;11.25;;
70148;SDS011;57514;52.164;5.282;2023-08-12T05:44:27;24.95;;;10.77;;
70148;SDS011;57514;52.164;5.282;2023-08-12T05:46:55;21.90;;;10.73;;
70148;SDS011;57514;52.164;5.282;2023-08-12T05:49:22;23.08;;;11.18;;
70148;SDS011;57514;52.164;5.282;2023-08-12T05:51:49;23.60;;;11.18;;
70148;SDS011;57514;52.164;5.282;2023-08-12T05:54:16;23.45;;;11.65;;
70148;SDS011;57514;52.164;5.282;2023-08-12T05:56:44;26.35;;;12.23;;
70148;SDS011;57514;52.164;5.282;2023-08-12T05:59:11;24.33;;;11.00;;
70148;SDS011;57514;52.164;5.282;2023-08-12T06:01:38;23.63;;;12.15;;
70148;SDS011;57514;52.164;5.282;2023-08-12T06:04:06;23.67;;;10.77;;
70148;SDS011;57514;52.164;5.282;2023-08-12T06:06:33;22.25;;;10.40;;
70148;SDS011;57514;52.164;5.282;2023-08-12T06:09:00;22.30;;;11.18;;
70148;SDS011;57514;52.164;5.282;2023-08-12T06:11:28;22.92;;;11.48;;
70148;SDS011;57514;52.164;5.282;2023-08-12T06:13:55;24.20;;;11.15;;
70148;SDS011;57514;52.164;5.282;2023-08-12T06:16:22;24.38;;;12.23;;
70148;SDS011;57514;52.164;5.282;2023-08-12T06:18:49;25.42;;;11.55;;
70148;SDS011;57514;52.164;5.282;2023-08-12T06:21:17;23.23;;;10.88;;
70148;SDS011;57514;52.164;5.282;2023-08-12T06:23:44;19.08;;;8.98;;
70148;SDS011;57514;52.164;5.282;2023-08-12T06:26:12;19.83;;;9.50;;
70148;SDS011;57514;52.164;5.282;2023-08-12T06:28:39;22.27;;;10.55;;
70148;SDS011;57514;52.164;5.282;2023-08-12T06:31:06;26.33;;;10.52;;
70148;SDS011;57514;52.164;5.282;2023-08-12T06:33:34;23.90;;;9.77;;
70148;SDS011;57514;52.164;5.282;2023-08-12T06:36:01;20.45;;;9.02;;
70148;SDS011;57514;52.164;5.282;2023-08-12T06:38:29;19.65;;;8.43;;
70148;SDS011;57514;52.164;5.282;2023-08-12T06:40:56;21.50;;;7.70;;
70148;SDS011;57514;52.164;5.282;2023-08-12T06:43:23;24.30;;;8.55;;
70148;SDS011;57514;52.164;5.282;2023-08-12T06:45:55;13.32;;;5.38;;
70148;SDS011;57514;52.164;5.282;2023-08-12T06:48:22;14.85;;;5.72;;
70148;SDS011;57514;52.164;5.282;2023-08-12T06:50:55;11.98;;;5.45;;
70148;SDS011;57514;52.164;5.282;2023-08-12T06:53:24;9.48;;;4.13;;
70148;SDS011;57514;52.164;5.282;2023-08-12T06:55:52;12.65;;;4.72;;
70148;SDS011;57514;52.164;5.282;2023-08-12T06:58:20;10.50;;;4.38;;
70148;SDS011;57514;52.164;5.282;2023-08-12T07:00:47;12.60;;;5.15;;
70148;SDS011;57514;52.164;5.282;2023-08-12T07:03:14;12.25;;;4.93;;
70148;SDS011;57514;52.164;5.282;2023-08-12T07:05:41;11.90;;;5.20;;
70148;SDS011;57514;52.164;5.282;2023-08-12T07:08:09;13.82;;;4.78;;
70148;SDS011;57514;52.164;5.282;2023-08-12T07:10:39;13.73;;;5.45;;
70148;SDS011;57514;52.164;5.282;2023-08-12T07:13:07;20.80;;;5.32;;
70148;SDS011;57514;52.164;5.282;2023-08-12T07:15:34;14.98;;;5.45;;
70148;SDS011;57514;52.164;5.282;2023-08-12T07:18:01;14.18;;;5.00;;
70148;SDS011;57514;52.164;5.282;2023-08-12T07:20:29;14.70;;;5.25;;
70148;SDS011;57514;52.164;5.282;2023-08-12T07:22:56;11.50;;;4.47;;
70148;SDS011;57514;52.164;5.282;2023-08-12T07:25:23;9.55;;;4.22;;
70148;SDS011;57514;52.164;5.282;2023-08-12T07:27:50;11.60;;;4.57;;
70148;SDS011;57514;52.164;5.282;2023-08-12T07:30:18;11.68;;;4.43;;
70148;SDS011;57514;52.164;5.282;2023-08-12T07:32:45;10.63;;;4.50;;
70148;SDS011;57514;52.164;5.282;2023-08-12T07:35:12;12.23;;;4.30;;
70148;SDS011;57514;52.164;5.282;2023-08-12T07:37:40;11.10;;;4.68;;
70148;SDS011;57514;52.164;5.282;2023-08-12T07:40:07;12.18;;;4.18;;
70148;SDS011;57514;52.164;5.282;2023-08-12T07:42:35;11.80;;;5.03;;
70148;SDS011;57514;52.164;5.282;2023-08-12T07:45:02;11.25;;;4.80;;
70148;SDS011;57514;52.164;5.282;2023-08-12T07:47:29;10.18;;;4.40;;
70148;SDS011;57514;52.164;5.282;2023-08-12T07:49:57;8.88;;;3.55;;
70148;SDS011;57514;52.164;5.282;2023-08-12T07:52:24;9.50;;;4.45;;
70148;SDS011;57514;52.164;5.282;2023-08-12T07:54:51;8.57;;;3.63;;
70148;SDS011;57514;52.164;5.282;2023-08-12T07:57:18;8.23;;;3.58;;
70148;SDS011;57514;52.164;5.282;2023-08-12T07:59:50;10.27;;;4.22;;
70148;SDS011;57514;52.164;5.282;2023-08-12T08:02:17;8.65;;;4.05;;
70148;SDS011;57514;52.164;5.282;2023-08-12T08:04:45;9.88;;;3.55;;
70148;SDS011;57514;52.164;5.282;2023-08-12T08:07:15;8.50;;;3.35;;
70148;SDS011;57514;52.164;5.282;2023-08-12T08:09:43;10.98;;;4.03;;
70148;SDS011;57514;52.164;5.282;2023-08-12T08:12:10;9.45;;;3.90;;
70148;SDS011;57514;52.164;5.282;2023-08-12T08:14:38;8.15;;;3.35;;
70148;SDS011;57514;52.164;5.282;2023-08-12T08:17:05;9.00;;;3.20;;
70148;SDS011;57514;52.164;5.282;2023-08-12T08:19:32;11.65;;;3.42;;
70148;SDS011;57514;52.164;5.282;2023-08-12T08:21:59;10.90;;;3.42;;
70148;SDS011;57514;52.164;5.282;2023-08-12T08:24:27;9.05;;;3.10;;
70148;SDS011;57514;52.164;5.282;2023-08-12T08:26:54;12.18;;;3.13;;
70148;SDS011;57514;52.164;5.282;2023-08-12T08:29:21;7.68;;;3.10;;
70148;SDS011;57514;52.164;5.282;2023-08-12T08:31:49;7.15;;;2.80;;
70148;SDS011;57514;52.164;5.282;2023-08-12T08:34:16;5.80;;;2.30;;
70148;SDS011;57514;52.164;5.282;2023-08-12T08:36:43;5.68;;;2.30;;
70148;SDS011;57514;52.164;5.282;2023-08-12T08:39:11;6.75;;;2.30;;
70148;SDS011;57514;52.164;5.282;2023-08-12T08:41:39;5.40;;;2.28;;
70148;SDS011;57514;52.164;5.282;2023-08-12T08:44:07;4.97;;;1.90;;
70148;SDS011;57514;52.164;5.282;2023-08-12T08:46:35;4.53;;;2.35;;
70148;SDS011;57514;52.164;5.282;2023-08-12T08:49:03;5.45;;;1.90;;
70148;SDS011;57514;52.164;5.282;2023-08-12T08:51:32;5.32;;;2.10;;
70148;SDS011;57514;52.164;5.282;2023-08-12T08:53:59;8.68;;;2.15;;
70148;SDS011;57514;52.164;5.282;2023-08-12T08:56:29;6.93;;;1.90;;
70148;SDS011;57514;52.164;5.282;2023-08-12T08:58:58;9.45;;;1.67;;
70148;SDS011;57514;52.164;5.282;2023-08-12T09:01:26;8.02;;;1.85;;
70148;SDS011;57514;52.164;5.282;2023-08-12T09:03:55;6.40;;;1.60;;
70148;SDS011;57514;52.164;5.282;2023-08-12T09:06:26;9.00;;;2.03;;
70148;SDS011;57514;52.164;5.282;2023-08-12T09:08:55;6.80;;;2.00;;
70148;SDS011;57514;52.164;5.282;2023-08-12T09:11:22;8.60;;;1.75;;
70148;SDS011;57514;52.164;5.282;2023-08-12T09:13:50;7.88;;;1.70;;
70148;SDS011;57514;52.164;5.282;2023-08-12T09:16:17;10.05;;;1.85;;
70148;SDS011;57514;52.164;5.282;2023-08-12T09:18:45;6.45;;;1.83;;
70148;SDS011;57514;52.164;5.282;2023-08-12T09:21:12;7.30;;;1.77;;
70148;SDS011;57514;52.164;5.282;2023-08-12T09:23:40;7.18;;;1.75;;
70148;SDS011;57514;52.164;5.282;2023-08-12T09:26:18;4.85;;;1.60;;
70148;SDS011;57514;52.164;5.282;2023-08-12T09:28:46;8.27;;;1.85;;
70148;SDS011;57514;52.164;5.282;2023-08-12T09:31:28;8.05;;;1.77;;
70148;SDS011;57514;52.164;5.282;2023-08-12T09:33:59;8.68;;;1.90;;
70148;SDS011;57514;52.164;5.282;2023-08-12T09:36:30;9.02;;;2.03;;
70148;SDS011;57514;52.164;5.282;2023-08-12T09:38:58;7.95;;;2.13;;
70148;SDS011;57514;52.164;5.282;2023-08-12T09:41:26;10.57;;;2.10;;
70148;SDS011;57514;52.164;5.282;2023-08-12T09:43:55;11.70;;;2.15;;
70148;SDS011;57514;52.164;5.282;2023-08-12T09:46:23;11.20;;;1.92;;
70148;SDS011;57514;52.164;5.282;2023-08-12T09:48:50;8.45;;;2.40;;
70148;SDS011;57514;52.164;5.282;2023-08-12T09:51:20;7.18;;;1.70;;
70148;SDS011;57514;52.164;5.282;2023-08-12T09:53:48;6.93;;;1.58;;
70148;SDS011;57514;52.164;5.282;2023-08-12T09:56:17;10.98;;;2.13;;
70148;SDS011;57514;52.164;5.282;2023-08-12T09:58:47;10.32;;;1.90;;
70148;SDS011;57514;52.164;5.282;2023-08-12T10:01:19;6.50;;;1.98;;
70148;SDS011;57514;52.164;5.282;2023-08-12T10:03:50;7.68;;;2.47;;
70148;SDS011;57514;52.164;5.282;2023-08-12T10:06:19;9.55;;;2.03;;
70148;SDS011;57514;52.164;5.282;2023-08-12T10:08:47;9.35;;;1.67;;
70148;SDS011;57514;52.164;5.282;2023-08-12T10:11:15;8.57;;;2.05;;
70148;SDS011;57514;52.164;5.282;2023-08-12T10:13:43;10.95;;;1.88;;
70148;SDS011;57514;52.164;5.282;2023-08-12T10:16:10;8.82;;;1.88;;
70148;SDS011;57514;52.164;5.282;2023-08-12T10:18:38;6.53;;;1.88;;
70148;SDS011;57514;52.164;5.282;2023-08-12T10:21:09;6.90;;;1.73;;
70148;SDS011;57514;52.164;5.282;2023-08-12T10:23:41;7.80;;;1.90;;
70148;SDS011;57514;52.164;5.282;2023-08-12T10:26:12;8.63;;;1.95;;
70148;SDS011;57514;52.164;5.282;2023-08-12T10:28:41;6.65;;;1.85;;
70148;SDS011;57514;52.164;5.282;2023-08-12T10:31:10;8.00;;;1.92;;
70148;SDS011;57514;52.164;5.282;2023-08-12T10:33:38;8.60;;;2.17;;
70148;SDS011;57514;52.164;5.282;2023-08-12T10:36:06;9.73;;;2.20;;
70148;SDS011;57514;52.164;5.282;2023-08-12T10:38:33;6.45;;;1.60;;
70148;SDS011;57514;52.164;5.282;2023-08-12T10:41:20;7.88;;;1.60;;
70148;SDS011;57514;52.164;5.282;2023-08-12T10:44:00;8.82;;;2.22;;
70148;SDS011;57514;52.164;5.282;2023-08-12T10:46:32;7.63;;;1.90;;
70148;SDS011;57514;52.164;5.282;2023-08-12T10:49:07;7.30;;;1.83;;
70148;SDS011;57514;52.164;5.282;2023-08-12T10:51:43;8.93;;;2.17;;
70148;SDS011;57514;52.164;5.282;2023-08-12T10:54:22;8.32;;;2.10;;
70148;SDS011;57514;52.164;5.282;2023-08-12T11:02:23;8.10;;;2.30;;
70148;SDS011;57514;52.164;5.282;2023-08-12T11:04:57;8.52;;;1.75;;
70148;SDS011;57514;52.164;5.282;2023-08-12T11:07:34;6.95;;;2.13;;
70148;SDS011;57514;52.164;5.282;2023-08-12T11:10:15;9.40;;;2.63;;
70148;SDS011;57514;52.164;5.282;2023-08-12T11:13:02;8.35;;;1.92;;
70148;SDS011;57514;52.164;5.282;2023-08-12T11:17:58;6.47;;;1.92;;
70148;SDS011;57514;52.164;5.282;2023-08-12T11:20:27;7.80;;;1.55;;
70148;SDS011;57514;52.164;5.282;2023-08-12T11:22:55;6.78;;;1.80;;
70148;SDS011;57514;52.164;5.282;2023-08-12T11:25:25;5.30;;;1.83;;
70148;SDS011;57514;52.164;5.282;2023-08-12T11:27:54;7.60;;;2.05;;
70148;SDS011;57514;52.164;5.282;2023-08-12T11:30:23;5.38;;;2.13;;
70148;SDS011;57514;52.164;5.282;2023-08-12T11:32:54;8.25;;;2.17;;
70148;SDS011;57514;52.164;5.282;2023-08-12T11:35:23;8.75;;;2.40;;
70148;SDS011;57514;52.164;5.282;2023-08-12T11:37:54;7.70;;;2.15;;
70148;SDS011;57514;52.164;5.282;2023-08-12T11:40:23;6.38;;;2.15;;
70148;SDS011;57514;52.164;5.282;2023-08-12T11:42:51;9.20;;;2.40;;
70148;SDS011;57514;52.164;5.282;2023-08-12T11:45:22;9.07;;;2.20;;
70148;SDS011;57514;52.164;5.282;2023-08-12T11:47:53;7.40;;;1.90;;
70148;SDS011;57514;52.164;5.282;2023-08-12T11:50:26;8.27;;;1.80;;
70148;SDS011;57514;52.164;5.282;2023-08-12T11:52:54;7.45;;;2.03;;
70148;SDS011;57514;52.164;5.282;2023-08-12T11:55:22;7.82;;;1.98;;
70148;SDS011;57514;52.164;5.282;2023-08-12T11:57:50;9.15;;;1.77;;
70148;SDS011;57514;52.164;5.282;2023-08-12T12:00:17;7.28;;;1.75;;
70148;SDS011;57514;52.164;5.282;2023-08-12T12:05:15;8.88;;;2.33;;
70148;SDS011;57514;52.164;5.282;2023-08-12T12:07:49;5.68;;;1.60;;
70148;SDS011;57514;52.164;5.282;2023-08-12T12:10:18;6.40;;;2.00;;
70148;SDS011;57514;52.164;5.282;2023-08-12T12:13:02;7.57;;;2.00;;
70148;SDS011;57514;52.164;5.282;2023-08-12T12:15:31;6.07;;;1.98;;
70148;SDS011;57514;52.164;5.282;2023-08-12T12:18:08;7.53;;;2.00;;
70148;SDS011;57514;52.164;5.282;2023-08-12T12:20:58;7.90;;;2.00;;
70148;SDS011;57514;52.164;5.282;2023-08-12T12:23:29;7.45;;;1.90;;
70148;SDS011;57514;52.164;5.282;2023-08-12T12:26:03;8.05;;;1.90;;
70148;SDS011;57514;52.164;5.282;2023-08-12T12:28:30;7.03;;;1.95;;
70148;SDS011;57514;52.164;5.282;2023-08-12T12:30:57;7.65;;;2.38;;
70148;SDS011;57514;52.164;5.282;2023-08-12T12:33:24;6.70;;;1.90;;
70148;SDS011;57514;52.164;5.282;2023-08-12T12:35:51;9.85;;;2.28;;
70148;SDS011;57514;52.164;5.282;2023-08-12T12:38:25;8.82;;;1.73;;
70148;SDS011;57514;52.164;5.282;2023-08-12T12:40:52;10.07;;;2.15;;
70148;SDS011;57514;52.164;5.282;2023-08-12T12:43:19;6.05;;;1.98;;
70148;SDS011;57514;52.164;5.282;2023-08-12T12:45:47;9.77;;;2.20;;
70148;SDS011;57514;52.164;5.282;2023-08-12T12:48:14;9.25;;;2.10;;
70148;SDS011;57514;52.164;5.282;2023-08-12T12:50:40;9.32;;;2.05;;
70148;SDS011;57514;52.164;5.282;2023-08-12T12:53:08;6.07;;;2.30;;
70148;SDS011;57514;52.164;5.282;2023-08-12T12:55:35;8.15;;;1.98;;
70148;SDS011;57514;52.164;5.282;2023-08-12T12:58:02;7.15;;;1.85;;
70148;SDS011;57514;52.164;5.282;2023-08-12T13:00:29;8.50;;;2.22;;
70148;SDS011;57514;52.164;5.282;2023-08-12T13:02:56;7.57;;;2.00;;
70148;SDS011;57514;52.164;5.282;2023-08-12T13:05:23;5.35;;;1.95;;
70148;SDS011;57514;52.164;5.282;2023-08-12T13:07:50;11.57;;;2.38;;
70148;SDS011;57514;52.164;5.282;2023-08-12T13:10:16;8.32;;;1.90;;
70148;SDS011;57514;52.164;5.282;2023-08-12T13:12:43;10.52;;;2.22;;
70148;SDS011;57514;52.164;5.282;2023-08-12T13:15:10;7.20;;;2.33;;
70148;SDS011;57514;52.164;5.282;2023-08-12T13:17:38;10.50;;;2.28;;
70148;SDS011;57514;52.164;5.282;2023-08-12T13:20:05;8.00;;;2.30;;
70148;SDS011;57514;52.164;5.282;2023-08-12T13:22:32;8.50;;;2.28;;
70148;SDS011;57514;52.164;5.282;2023-08-12T13:24:59;9.38;;;1.88;;
70148;SDS011;57514;52.164;5.282;2023-08-12T13:27:26;6.82;;;1.70;;
70148;SDS011;57514;52.164;5.282;2023-08-12T13:29:54;6.60;;;1.83;;
70148;SDS011;57514;52.164;5.282;2023-08-12T13:32:21;9.25;;;2.25;;
70148;SDS011;57514;52.164;5.282;2023-08-12T13:34:48;8.88;;;2.05;;
70148;SDS011;57514;52.164;5.282;2023-08-12T13:37:15;7.22;;;1.95;;
70148;SDS011;57514;52.164;5.282;2023-08-12T13:39:43;11.73;;;2.33;;
70148;SDS011;57514;52.164;5.282;2023-08-12T13:42:09;9.38;;;2.03;;
70148;SDS011;57514;52.164;5.282;2023-08-12T13:44:37;9.57;;;1.80;;
70148;SDS011;57514;52.164;5.282;2023-08-12T13:47:04;7.47;;;2.00;;
70148;SDS011;57514;52.164;5.282;2023-08-12T13:49:32;9.95;;;2.05;;
70148;SDS011;57514;52.164;5.282;2023-08-12T13:51:59;9.63;;;2.20;;
70148;SDS011;57514;52.164;5.282;2023-08-12T13:54:26;8.48;;;1.95;;
70148;SDS011;57514;52.164;5.282;2023-08-12T13:56:53;10.98;;;2.28;;
70148;SDS011;57514;52.164;5.282;2023-08-12T13:59:20;10.23;;;1.92;;
70148;SDS011;57514;52.164;5.282;2023-08-12T14:01:47;8.85;;;1.75;;
70148;SDS011;57514;52.164;5.282;2023-08-12T14:04:14;7.85;;;2.22;;
70148;SDS011;57514;52.164;5.282;2023-08-12T14:06:41;10.18;;;2.03;;
70148;SDS011;57514;52.164;5.282;2023-08-12T14:09:09;8.88;;;1.80;;
70148;SDS011;57514;52.164;5.282;2023-08-12T14:11:40;9.48;;;2.00;;
70148;SDS011;57514;52.164;5.282;2023-08-12T14:14:07;7.82;;;2.03;;
70148;SDS011;57514;52.164;5.282;2023-08-12T14:16:35;9.20;;;2.00;;
70148;SDS011;57514;52.164;5.282;2023-08-12T14:19:02;7.80;;;1.88;;
70148;SDS011;57514;52.164;5.282;2023-08-12T14:21:29;9.23;;;1.90;;
70148;SDS011;57514;52.164;5.282;2023-08-12T14:23:56;8.32;;;1.90;;
70148;SDS011;57514;52.164;5.282;2023-08-12T14:26:23;9.77;;;2.33;;
70148;SDS011;57514;52.164;5.282;2023-08-12T14:28:51;9.90;;;2.30;;
70148;SDS011;57514;52.164;5.282;2023-08-12T14:31:18;11.98;;;2.20;;
70148;SDS011;57514;52.164;5.282;2023-08-12T14:33:45;7.82;;;1.95;;
70148;SDS011;57514;52.164;5.282;2023-08-12T14:36:12;10.10;;;2.25;;
70148;SDS011;57514;52.164;5.282;2023-08-12T14:38:39;7.90;;;2.05;;
70148;SDS011;57514;52.164;5.282;2023-08-12T14:41:07;8.38;;;1.75;;
70148;SDS011;57514;52.164;5.282;2023-08-12T14:43:34;8.98;;;1.85;;
70148;SDS011;57514;52.164;5.282;2023-08-12T14:46:03;10.75;;;2.03;;
70148;SDS011;57514;52.164;5.282;2023-08-12T14:48:31;10.32;;;2.22;;
70148;SDS011;57514;52.164;5.282;2023-08-12T14:50:58;11.30;;;2.10;;
70148;SDS011;57514;52.164;5.282;2023-08-12T14:53:25;9.30;;;2.25;;
70148;SDS011;57514;52.164;5.282;2023-08-12T14:55:52;8.25;;;2.00;;
70148;SDS011;57514;52.164;5.282;2023-08-12T14:58:19;10.40;;;2.42;;
70148;SDS011;57514;52.164;5.282;2023-08-12T15:00:47;12.60;;;2.38;;
70148;SDS011;57514;52.164;5.282;2023-08-12T15:03:14;10.15;;;2.20;;